createdAt,value
2023-02-23T00:02:09.110Z,11.50
2023-02-23T00:04:38.377Z,11.60
2023-02-23T00:07:08.386Z,11.50
2023-02-23T00:09:36.819Z,11.50
2023-02-23T00:12:08.731Z,11.50
2023-02-23T00:14:38.739Z,11.50
2023-02-23T00:17:14.157Z,11.50
2023-02-23T00:19:43.782Z,11.50
2023-02-23T00:22:13.758Z,11.50
2023-02-23T00:24:43.138Z,11.60
2023-02-23T00:27:17.547Z,11.50
2023-02-23T00:29:49.299Z,11.50
2023-02-23T00:32:20.080Z,11.60
2023-02-23T00:34:49.723Z,11.60
2023-02-23T00:37:22.716Z,11.50
2023-02-23T00:39:52.100Z,11.60
2023-02-23T00:42:21.118Z,11.70
2023-02-23T00:44:49.737Z,11.50
2023-02-23T00:47:18.178Z,11.50
2023-02-23T00:49:46.709Z,11.80
2023-02-23T00:52:15.549Z,11.50
2023-02-23T00:54:45.456Z,11.60
2023-02-23T00:57:15.774Z,11.50
2023-02-23T00:59:44.096Z,11.80
2023-02-23T01:02:12.428Z,11.50
2023-02-23T01:04:40.822Z,11.60
2023-02-23T01:07:09.187Z,11.60
2023-02-23T01:09:38.129Z,11.60
2023-02-23T01:12:08.401Z,11.60
2023-02-23T01:14:38.363Z,11.60
2023-02-23T01:17:07.516Z,11.60
2023-02-23T01:19:37.784Z,11.80
2023-02-23T01:22:06.300Z,11.60
2023-02-23T01:24:34.628Z,11.60
2023-02-23T01:27:07.540Z,11.60
2023-02-23T01:29:35.881Z,11.60
2023-02-23T01:33:21.135Z,11.60
2023-02-23T01:35:59.498Z,11.60
2023-02-23T01:38:28.193Z,11.60
2023-02-23T01:40:56.499Z,11.70
2023-02-23T01:43:26.940Z,11.60
2023-02-23T01:45:58.133Z,11.50
2023-02-23T01:48:31.806Z,11.50
2023-02-23T01:51:05.902Z,11.60
2023-02-23T01:53:39.026Z,11.60
2023-02-23T01:56:13.020Z,11.60
2023-02-23T01:58:46.694Z,11.60
2023-02-23T02:01:16.193Z,11.60
2023-02-23T02:03:48.804Z,11.60
2023-02-23T02:06:21.063Z,11.80
2023-02-23T02:08:54.982Z,11.60
2023-02-23T02:11:30.892Z,11.50
2023-02-23T02:14:03.678Z,11.60
2023-02-23T02:16:50.237Z,11.60
2023-02-23T02:19:59.116Z,11.60
2023-02-23T02:23:16.985Z,11.70
2023-02-23T02:25:59.025Z,11.60
2023-02-23T02:29:26.395Z,11.60
2023-02-23T02:32:26.869Z,11.60
2023-02-23T02:35:34.670Z,11.80
2023-02-23T02:38:31.414Z,11.60
2023-02-23T02:41:05.470Z,11.60
2023-02-23T02:43:46.966Z,11.50
2023-02-23T02:46:19.742Z,11.80
2023-02-23T02:48:57.767Z,11.60
2023-02-23T02:51:29.562Z,11.60
2023-02-23T02:54:07.102Z,11.60
2023-02-23T02:56:40.584Z,11.60
2023-02-23T02:59:32.235Z,11.60
2023-02-23T03:02:18.269Z,11.60
2023-02-23T03:05:04.191Z,11.60
2023-02-23T03:07:56.060Z,11.60
2023-02-23T03:10:53.666Z,11.60
2023-02-23T03:13:50.991Z,11.60
2023-02-23T03:16:51.481Z,11.60
2023-02-23T03:19:40.955Z,11.60
2023-02-23T03:22:37.417Z,11.60
2023-02-23T03:25:29.193Z,11.90
2023-02-23T03:28:29.726Z,11.60
2023-02-23T03:31:28.740Z,11.90
2023-02-23T03:34:31.381Z,11.70
2023-02-23T03:37:33.514Z,11.60
2023-02-23T03:40:26.238Z,11.60
2023-02-23T03:43:18.600Z,11.60
2023-02-23T03:46:07.295Z,11.60
2023-02-23T03:48:55.160Z,11.60
2023-02-23T03:51:43.715Z,11.60
2023-02-23T03:54:34.696Z,11.60
2023-02-23T03:57:24.519Z,11.60
2023-02-23T04:00:16.198Z,11.60
2023-02-23T04:03:06.922Z,11.70
2023-02-23T04:05:56.245Z,11.60
2023-02-23T04:08:47.120Z,11.60
2023-02-23T04:11:40.004Z,11.60
2023-02-23T04:14:17.312Z,11.60
2023-02-23T04:16:47.180Z,11.70
2023-02-23T04:19:15.623Z,11.60
2023-02-23T04:21:43.930Z,11.60
2023-02-23T04:24:12.526Z,11.70
2023-02-23T04:26:40.816Z,11.60
2023-02-23T04:29:09.111Z,11.60
2023-02-23T04:31:37.551Z,11.60
2023-02-23T04:34:07.245Z,11.60
2023-02-23T04:36:36.364Z,11.70
2023-02-23T04:39:05.314Z,11.70
2023-02-23T04:41:33.637Z,11.70
2023-02-23T04:44:01.929Z,11.60
2023-02-23T04:46:30.421Z,11.70
2023-02-23T04:48:59.204Z,11.70
2023-02-23T04:51:32.332Z,11.60
2023-02-23T04:54:00.768Z,11.70
2023-02-23T04:56:29.168Z,11.70
2023-02-23T04:58:57.506Z,11.70
2023-02-23T05:01:25.866Z,11.70
2023-02-23T05:03:54.572Z,11.70
2023-02-23T05:06:23.469Z,11.90
2023-02-23T05:08:53.280Z,11.70
2023-02-23T05:11:21.608Z,11.70
2023-02-23T05:13:49.917Z,11.70
2023-02-23T05:16:18.198Z,11.70
2023-02-23T05:18:46.691Z,11.70
2023-02-23T05:21:15.063Z,11.90
2023-02-23T05:23:43.519Z,11.70
2023-02-23T05:26:14.642Z,11.70
2023-02-23T05:28:44.200Z,11.80
2023-02-23T05:31:12.897Z,11.80
2023-02-23T05:33:42.657Z,11.80
2023-02-23T05:36:12.702Z,11.80
2023-02-23T05:38:41.666Z,11.90
2023-02-23T05:41:13.262Z,11.90
2023-02-23T05:43:42.228Z,12.00
2023-02-23T05:46:11.538Z,12.00
2023-02-23T05:48:40.149Z,12.10
2023-02-23T05:51:11.873Z,12.10
2023-02-23T05:53:40.814Z,12.10
2023-02-23T05:56:18.242Z,12.20
2023-02-23T05:58:46.769Z,12.20
2023-02-23T06:01:15.076Z,12.20
2023-02-23T06:03:43.448Z,12.20
2023-02-23T06:06:12.114Z,12.30
2023-02-23T06:08:40.542Z,12.30
2023-02-23T06:11:09.170Z,12.30
2023-02-23T06:13:39.258Z,12.30
2023-02-23T06:16:09.504Z,12.40
2023-02-23T06:18:38.030Z,12.30
2023-02-23T06:21:08.094Z,12.70
2023-02-23T06:23:36.443Z,12.40
2023-02-23T06:26:04.906Z,12.40
2023-02-23T06:28:33.304Z,12.40
2023-02-23T06:31:03.083Z,12.40
2023-02-23T06:33:31.585Z,12.40
2023-02-23T06:36:00.001Z,12.50
2023-02-23T06:38:28.387Z,12.50
2023-02-23T06:40:56.715Z,12.50
2023-02-23T06:43:25.075Z,12.70
2023-02-23T06:45:53.378Z,12.50
2023-02-23T06:48:23.075Z,12.50
2023-02-23T06:50:51.377Z,12.70
2023-02-23T06:53:20.293Z,12.60
2023-02-23T06:55:48.583Z,12.60
2023-02-23T06:58:17.719Z,12.60
2023-02-23T07:00:46.014Z,12.80
2023-02-23T07:03:14.397Z,12.60
2023-02-23T07:05:44.187Z,12.70
2023-02-23T07:08:12.641Z,12.70
2023-02-23T07:10:41.116Z,12.70
2023-02-23T07:13:09.639Z,12.90
2023-02-23T07:15:38.920Z,12.70
2023-02-23T07:18:08.072Z,12.70
2023-02-23T07:20:36.796Z,12.90
2023-02-23T07:23:06.473Z,12.70
2023-02-23T07:25:34.776Z,12.80
2023-02-23T07:28:03.562Z,12.90
2023-02-23T07:30:31.993Z,12.80
2023-02-23T07:33:00.345Z,12.80
2023-02-23T07:35:28.677Z,12.80
2023-02-23T07:37:56.964Z,12.80
2023-02-23T07:40:26.959Z,13.10
2023-02-23T07:42:55.581Z,12.80
2023-02-23T07:45:24.969Z,13.00
2023-02-23T07:47:53.348Z,12.80
2023-02-23T07:50:21.843Z,12.90
2023-02-23T07:52:50.203Z,13.20
2023-02-23T07:55:18.847Z,12.90
2023-02-23T07:57:48.551Z,12.90
2023-02-23T08:00:17.783Z,12.90
2023-02-23T08:02:46.162Z,13.00
2023-02-23T08:05:14.491Z,12.90
2023-02-23T08:07:42.850Z,12.90
2023-02-23T08:10:13.088Z,13.00
2023-02-23T08:12:41.521Z,13.00
2023-02-23T08:15:12.262Z,13.20
2023-02-23T08:17:41.484Z,13.00
2023-02-23T08:20:12.845Z,13.00
2023-02-23T08:22:49.293Z,13.10
2023-02-23T08:25:18.856Z,13.00
2023-02-23T08:27:47.569Z,13.10
2023-02-23T08:30:18.043Z,13.30
2023-02-23T08:32:46.764Z,13.10
2023-02-23T08:35:15.894Z,13.10
2023-02-23T08:37:45.409Z,13.10
2023-02-23T08:40:15.784Z,13.10
2023-02-23T08:42:44.278Z,13.10
2023-02-23T08:45:13.543Z,13.20
2023-02-23T08:47:43.295Z,13.20
2023-02-23T08:50:14.115Z,13.20
2023-02-23T08:52:43.130Z,13.20
2023-02-23T08:55:14.007Z,13.20
2023-02-23T08:57:42.439Z,13.20
2023-02-23T09:00:16.872Z,13.20
2023-02-23T09:02:48.227Z,13.20
2023-02-23T09:05:17.346Z,13.20
2023-02-23T09:07:47.347Z,13.20
2023-02-23T09:10:19.814Z,13.30
2023-02-23T09:12:48.250Z,13.30
2023-02-23T09:15:16.722Z,13.30
2023-02-23T09:17:47.351Z,13.30
2023-02-23T09:20:17.210Z,13.30
2023-02-23T09:22:48.720Z,13.30
2023-02-23T09:25:22.890Z,13.30
2023-02-23T09:27:52.713Z,13.30
2023-02-23T09:30:22.647Z,13.40
2023-02-23T09:32:52.923Z,13.40
2023-02-23T09:35:23.877Z,13.40
2023-02-23T09:37:55.771Z,13.40
2023-02-23T09:40:27.920Z,13.40
2023-02-23T09:43:04.495Z,13.40
2023-02-23T09:45:40.811Z,13.50
2023-02-23T09:48:17.568Z,13.50
2023-02-23T09:50:51.560Z,13.50
2023-02-23T09:53:37.346Z,13.50
2023-02-23T09:56:12.999Z,13.60
2023-02-23T09:58:42.194Z,13.60
2023-02-23T10:01:54.625Z,13.70
2023-02-23T10:04:28.852Z,13.70
2023-02-23T10:07:12.452Z,13.70
2023-02-23T10:09:57.293Z,13.70
2023-02-23T10:12:34.532Z,13.70
2023-02-23T10:15:17.702Z,13.70
2023-02-23T10:17:59.057Z,13.80
2023-02-23T10:20:40.545Z,13.80
2023-02-23T10:23:14.968Z,13.80
2023-02-23T10:25:47.871Z,13.80
2023-02-23T10:28:18.904Z,13.90
2023-02-23T10:30:48.534Z,13.90
2023-02-23T10:33:22.584Z,13.90
2023-02-23T10:36:12.583Z,13.90
2023-02-23T10:38:42.357Z,14.00
2023-02-23T10:41:14.718Z,14.00
2023-02-23T10:43:43.857Z,14.10
2023-02-23T10:46:22.316Z,14.10
2023-02-23T10:48:52.576Z,14.10
2023-02-23T10:51:29.615Z,14.10
2023-02-23T10:54:07.496Z,14.20
2023-02-23T10:56:46.174Z,14.20
2023-02-23T10:59:21.631Z,14.20
2023-02-23T11:02:01.478Z,14.30
2023-02-23T11:04:35.135Z,14.30
2023-02-23T11:07:15.361Z,14.30
2023-02-23T11:09:47.531Z,14.40
2023-02-23T11:12:23.062Z,14.30
2023-02-23T11:14:55.376Z,14.50
2023-02-23T11:17:35.747Z,14.40
2023-02-23T11:20:11.828Z,14.40
2023-02-23T11:22:43.668Z,14.50
2023-02-23T11:25:27.612Z,14.50
2023-02-23T11:27:57.204Z,14.50
2023-02-23T11:30:29.832Z,14.60
2023-02-23T11:33:09.476Z,14.60
2023-02-23T11:35:39.286Z,14.60
2023-02-23T11:38:24.481Z,14.60
2023-02-23T11:41:05.605Z,14.60
2023-02-23T11:43:36.253Z,14.60
2023-02-23T11:46:05.573Z,14.70
2023-02-23T11:48:37.746Z,14.70
2023-02-23T11:51:06.977Z,14.70
2023-02-23T11:53:41.322Z,14.70
2023-02-23T11:56:12.731Z,14.80
2023-02-23T11:58:45.124Z,14.80
2023-02-23T12:01:17.321Z,14.80
2023-02-23T12:03:50.515Z,14.90
2023-02-23T12:06:31.379Z,14.90
2023-02-23T12:09:08.352Z,14.90
2023-02-23T12:11:43.006Z,14.90
2023-02-23T12:14:20.187Z,14.90
2023-02-23T12:16:52.440Z,15.00
2023-02-23T12:19:28.958Z,14.90
2023-02-23T12:22:08.072Z,15.00
2023-02-23T12:24:47.542Z,15.00
2023-02-23T12:27:22.644Z,15.00
2023-02-23T12:30:09.145Z,15.00
2023-02-23T12:32:47.931Z,15.10
2023-02-23T12:35:23.867Z,15.00
2023-02-23T12:37:59.493Z,15.10
2023-02-23T12:40:36.112Z,15.10
2023-02-23T12:43:13.768Z,15.10
2023-02-23T12:45:49.541Z,15.10
2023-02-23T12:48:34.593Z,15.10
2023-02-23T12:51:10.964Z,15.20
2023-02-23T12:53:43.576Z,15.20
2023-02-23T12:56:32.803Z,15.20
2023-02-23T12:59:25.510Z,15.30
2023-02-23T13:01:58.762Z,15.30
2023-02-23T13:04:52.442Z,15.40
2023-02-23T13:07:24.963Z,15.40
2023-02-23T13:10:11.118Z,15.40
2023-02-23T13:12:53.777Z,15.40
2023-02-23T13:15:32.533Z,15.50
2023-02-23T13:18:08.427Z,15.50
2023-02-23T13:20:44.659Z,15.50
2023-02-23T13:23:23.103Z,15.50
2023-02-23T13:26:01.782Z,15.50
2023-02-23T13:28:47.584Z,15.60
2023-02-23T13:31:27.120Z,15.60
2023-02-23T13:34:01.243Z,15.60
2023-02-23T13:36:33.157Z,15.60
2023-02-23T13:39:42.271Z,15.60
2023-02-23T13:42:32.355Z,15.60
2023-02-23T13:45:25.690Z,15.60
2023-02-23T13:48:02.482Z,15.60
2023-02-23T13:50:38.992Z,15.70
2023-02-23T13:53:22.903Z,15.70
2023-02-23T13:55:54.266Z,15.60
2023-02-23T13:58:34.388Z,15.70
2023-02-23T14:01:15.611Z,15.60
2023-02-23T14:03:57.166Z,15.50
2023-02-23T14:06:28.878Z,15.60
2023-02-23T14:09:09.181Z,15.60
2023-02-23T14:11:49.735Z,15.60
2023-02-23T14:14:42.905Z,15.60
2023-02-23T14:17:44.356Z,15.60
2023-02-23T14:20:29.732Z,15.60
2023-02-23T14:23:35.133Z,15.60
2023-02-23T14:26:43.730Z,15.60
2023-02-23T14:29:27.760Z,15.60
2023-02-23T14:32:01.766Z,15.60
2023-02-23T14:34:54.529Z,15.60
2023-02-23T14:37:32.253Z,15.60
2023-02-23T14:40:14.084Z,15.60
2023-02-23T14:42:43.849Z,15.60
2023-02-23T14:45:27.499Z,15.60
2023-02-23T14:48:00.994Z,15.60
2023-02-23T14:50:34.237Z,15.50
2023-02-23T14:53:04.654Z,15.60
2023-02-23T14:55:36.895Z,15.60
2023-02-23T14:58:27.459Z,15.60
2023-02-23T15:00:58.294Z,15.60
2023-02-23T15:03:27.730Z,15.50
2023-02-23T15:06:01.020Z,15.60
2023-02-23T15:08:31.498Z,15.60
2023-02-23T15:11:05.759Z,15.60
2023-02-23T15:16:09.788Z,15.60
2023-02-23T15:19:32.840Z,15.60
2023-02-23T15:22:04.841Z,15.60
2023-02-23T15:24:42.816Z,15.60
2023-02-23T15:27:22.642Z,15.60
2023-02-23T15:29:51.828Z,15.60
2023-02-23T15:32:23.563Z,15.60
2023-02-23T15:34:53.140Z,15.50
2023-02-23T15:37:32.744Z,15.50
2023-02-23T15:40:06.098Z,15.50
2023-02-23T15:42:41.091Z,15.50
2023-02-23T15:45:20.118Z,15.50
2023-02-23T15:47:48.555Z,15.50
2023-02-23T15:50:31.256Z,15.50
2023-02-23T15:53:13.806Z,15.50
2023-02-23T15:55:44.752Z,15.50
2023-02-23T15:58:22.167Z,15.50
2023-02-23T16:00:57.011Z,15.50
2023-02-23T16:03:31.666Z,15.40
2023-02-23T16:06:07.655Z,15.40
2023-02-23T16:08:37.470Z,15.40
2023-02-23T16:11:15.182Z,15.40
2023-02-23T16:13:45.296Z,15.40
2023-02-23T16:16:19.407Z,15.40
2023-02-23T16:18:53.759Z,15.40
2023-02-23T16:21:25.657Z,15.40
2023-02-23T16:23:58.405Z,15.40
2023-02-23T16:26:32.610Z,15.30
2023-02-23T16:29:03.477Z,15.30
2023-02-23T16:31:44.266Z,15.30
2023-02-23T16:34:22.788Z,15.30
2023-02-23T16:36:56.758Z,15.30
2023-02-23T16:39:30.314Z,15.30
2023-02-23T16:42:00.019Z,15.30
2023-02-23T16:44:42.997Z,15.20
2023-02-23T16:47:36.448Z,15.40
2023-02-23T16:50:20.221Z,15.20
2023-02-23T16:52:53.054Z,15.20
2023-02-23T16:55:26.546Z,15.20
2023-02-23T16:57:58.111Z,15.10
2023-02-23T17:00:29.187Z,15.10
2023-02-23T17:02:58.705Z,15.10
2023-02-23T17:05:28.326Z,15.10
2023-02-23T17:07:58.266Z,15.10
2023-02-23T17:10:31.720Z,15.10
2023-02-23T17:13:04.965Z,15.00
2023-02-23T17:15:36.768Z,15.00
2023-02-23T17:18:06.453Z,15.00
2023-02-23T17:20:35.421Z,15.00
2023-02-23T17:23:04.873Z,15.00
2023-02-23T17:25:34.954Z,14.90
2023-02-23T17:28:03.895Z,14.90
2023-02-23T17:30:33.139Z,14.90
2023-02-23T17:33:02.373Z,14.90
2023-02-23T17:35:33.390Z,14.90
2023-02-23T17:38:02.154Z,14.90
2023-02-23T17:40:31.113Z,14.90
2023-02-23T17:43:03.349Z,14.80
2023-02-23T17:45:32.543Z,14.80
2023-02-23T17:48:01.049Z,14.80
2023-02-23T17:50:29.895Z,14.80
2023-02-23T17:52:59.122Z,14.80
2023-02-23T17:55:27.942Z,14.70
2023-02-23T17:57:56.237Z,14.70
2023-02-23T18:00:26.181Z,14.70
2023-02-23T18:02:54.545Z,14.70
2023-02-23T18:05:23.074Z,14.70
2023-02-23T18:07:51.385Z,14.60
2023-02-23T18:10:19.905Z,14.60
2023-02-23T18:12:48.282Z,14.60
2023-02-23T18:15:17.470Z,14.60
2023-02-23T18:17:47.280Z,14.60
2023-02-23T18:20:16.511Z,14.60
2023-02-23T18:22:45.567Z,14.50
2023-02-23T18:25:21.986Z,14.50
2023-02-23T18:27:54.478Z,14.50
2023-02-23T18:30:24.917Z,14.50
2023-02-23T18:32:58.183Z,14.50
2023-02-23T18:35:26.667Z,14.40
2023-02-23T18:37:55.573Z,14.40
2023-02-23T18:40:24.901Z,14.40
2023-02-23T18:42:53.217Z,14.40
2023-02-23T18:45:21.590Z,14.40
2023-02-23T18:47:51.520Z,14.40
2023-02-23T18:50:21.979Z,14.40
2023-02-23T18:52:51.788Z,14.30
2023-02-23T18:55:22.244Z,14.30
2023-02-23T18:57:52.669Z,14.30
2023-02-23T19:00:22.618Z,14.30
2023-02-23T19:02:52.109Z,14.30
2023-02-23T19:05:22.366Z,14.30
2023-02-23T19:07:50.974Z,14.30
2023-02-23T19:10:19.559Z,14.20
2023-02-23T19:12:48.039Z,14.20
2023-02-23T19:15:17.150Z,14.20
2023-02-23T19:17:47.199Z,14.20
2023-02-23T19:20:18.699Z,14.20
2023-02-23T19:22:49.803Z,14.20
2023-02-23T19:25:18.648Z,14.10
2023-02-23T19:27:47.021Z,14.10
2023-02-23T19:30:15.742Z,14.10
2023-02-23T19:32:45.004Z,14.10
2023-02-23T19:35:15.727Z,14.10
2023-02-23T19:37:50.641Z,14.10
2023-02-23T19:40:22.862Z,14.10
2023-02-23T19:42:53.338Z,14.10
2023-02-23T19:45:24.867Z,14.00
2023-02-23T19:47:53.891Z,14.00
2023-02-23T19:50:23.152Z,14.00
2023-02-23T19:52:52.976Z,14.00
2023-02-23T19:55:21.394Z,14.00
2023-02-23T19:57:49.928Z,14.00
2023-02-23T20:00:19.163Z,14.00
2023-02-23T20:02:54.892Z,13.90
2023-02-23T20:05:25.716Z,13.90
2023-02-23T20:07:55.716Z,13.90
2023-02-23T20:10:25.881Z,13.90
2023-02-23T20:12:54.490Z,13.90
2023-02-23T20:15:23.611Z,13.90
2023-02-23T20:17:52.388Z,13.90
2023-02-23T20:20:25.584Z,13.80
2023-02-23T20:22:56.212Z,13.80
2023-02-23T20:25:27.163Z,13.80
2023-02-23T20:27:56.185Z,13.80
2023-02-23T20:30:25.420Z,13.80
2023-02-23T20:32:54.037Z,13.80
2023-02-23T20:35:26.340Z,13.80
2023-02-23T20:37:56.193Z,13.80
2023-02-23T20:40:24.767Z,13.80
2023-02-23T20:42:53.362Z,13.80
2023-02-23T20:45:25.801Z,13.70
2023-02-23T20:47:55.639Z,13.70
2023-02-23T20:50:28.613Z,13.70
2023-02-23T20:52:58.469Z,13.70
2023-02-23T20:55:27.132Z,13.70
2023-02-23T20:57:56.670Z,13.70
2023-02-23T21:00:32.057Z,13.70
2023-02-23T21:03:02.119Z,13.70
2023-02-23T21:05:33.630Z,13.70
2023-02-23T21:08:06.335Z,13.70
2023-02-23T21:10:40.126Z,13.60
2023-02-23T21:13:10.435Z,13.60
2023-02-23T21:15:39.553Z,13.60
2023-02-23T21:18:08.543Z,13.60
2023-02-23T21:20:38.985Z,13.60
2023-02-23T21:23:08.776Z,13.50
2023-02-23T21:25:38.460Z,13.50
2023-02-23T21:28:07.240Z,13.50
2023-02-23T21:30:35.626Z,13.50
2023-02-23T21:33:04.140Z,13.50
2023-02-23T21:35:35.169Z,13.50
2023-02-23T21:38:04.168Z,13.50
2023-02-23T21:40:33.859Z,13.50
2023-02-23T21:43:06.617Z,13.50
2023-02-23T21:45:34.989Z,13.50
2023-02-23T21:48:04.454Z,13.50
2023-02-23T21:50:32.833Z,13.40
2023-02-23T21:53:01.198Z,13.40
2023-02-23T21:55:29.572Z,13.40
2023-02-23T21:57:59.339Z,13.40
2023-02-23T22:00:28.080Z,13.40
2023-02-23T22:02:56.516Z,13.40
2023-02-23T22:05:24.952Z,13.40
2023-02-23T22:07:55.441Z,13.40
2023-02-23T22:10:26.215Z,13.40
2023-02-23T22:12:56.067Z,13.40
2023-02-23T22:15:28.210Z,13.40
2023-02-23T22:17:56.745Z,13.40
2023-02-23T22:20:26.319Z,13.40
2023-02-23T22:22:54.735Z,13.40
2023-02-23T22:25:23.052Z,13.40
2023-02-23T22:27:51.414Z,13.30
2023-02-23T22:30:22.446Z,13.30
2023-02-23T22:32:52.504Z,13.30
2023-02-23T22:35:21.060Z,13.30
2023-02-23T22:37:49.492Z,13.30
2023-02-23T22:40:18.564Z,13.30
2023-02-23T22:42:49.084Z,13.30
2023-02-23T22:45:18.113Z,13.30
2023-02-23T22:47:46.595Z,13.30
2023-02-23T22:50:19.188Z,13.50
2023-02-23T22:52:48.250Z,13.30
2023-02-23T22:55:16.804Z,13.30
2023-02-23T22:57:46.033Z,13.20
2023-02-23T23:00:17.784Z,13.20
2023-02-23T23:02:46.094Z,13.20
2023-02-23T23:05:16.592Z,13.20
2023-02-23T23:07:46.809Z,13.20
2023-02-23T23:10:17.646Z,13.20
2023-02-23T23:12:46.632Z,13.40
2023-02-23T23:15:17.536Z,13.20
2023-02-23T23:17:48.440Z,13.20
2023-02-23T23:20:25.593Z,13.20
2023-02-23T23:22:57.115Z,13.20
2023-02-23T23:25:25.870Z,13.20
2023-02-23T23:27:54.667Z,13.20
2023-02-23T23:30:26.162Z,13.20
2023-02-23T23:32:54.842Z,13.20
2023-02-23T23:35:25.990Z,13.10
2023-02-23T23:37:54.315Z,13.10
2023-02-23T23:40:24.506Z,13.10
2023-02-23T23:42:55.361Z,13.10
2023-02-23T23:45:25.357Z,13.10
2023-02-23T23:47:53.732Z,13.10
2023-02-23T23:50:26.850Z,13.10
2023-02-23T23:52:57.067Z,13.10
2023-02-23T23:55:31.270Z,13.10
2023-02-23T23:58:00.698Z,13.10
